Donington — D5NC3 — position and weather

sailwx.info

Track history (hours):
 
Tides and Currents Weather Stations Pressure Air Temp Water Temp Dewpoint Dewpoint Depression Visibility Wind Speed Wind Dir Waves Ship Positions

Donington

Last reported at 2017-Nov-04 11:26 UTC. Time now 2017-Nov-18 19:11 UTC.
Position N 36°20' E 015°04'.
Warning: this ship's position is 14 days out of date.

Length 199 m; draft 9.3 m.

Type: Cargo ship. MMSI: 636017870.

Date/timePositionNaut miles runAvg speedWind from/ knotsBaromVisibWave heightAir tempDewpointWater temp
2017-Nov-04 11:26N 36°20' E 015°04'816.7
2017-Nov-04 10:59N 36°23' E 014°55'816.6
2017-Nov-04 10:29N 36°25' E 014°45'816.6
2017-Nov-04 10:00N 36°27' E 014°35'816.6
2017-Nov-04 09:30N 36°30' E 014°25'816.9
2017-Nov-04 09:00N 36°32' E 014°16'816.9
2017-Nov-04 08:30N 36°35' E 014°06'917.0
2017-Nov-04 08:00N 36°38' E 013°55'917.1
2017-Nov-04 07:30N 36°40' E 013°45'817.0
2017-Nov-04 07:00N 36°43' E 013°35'916.9
2017-Nov-04 06:30N 36°45' E 013°25'916.9
2017-Nov-04 05:58N 36°48' E 013°14'816.5
2017-Nov-04 05:29N 36°51' E 013°05'58917.0
2017-Nov-02 18:51N 36°49' E 000°49'7317.2
2017-Nov-02 14:37N 36°35' W 000°41'416.7
2017-Nov-02 14:23N 36°35' W 000°45'22017.3
2017-Nov-02 01:41N 36°00' W 005°15'318.6
2017-Nov-02 01:30N 35°60' W 005°19'918.4
2017-Nov-02 01:00N 35°57' W 005°30'31913.9
2017-Nov-01 02:00N 39°49' W 010°06'2517.3
2017-Nov-01 00:33N 40°14' W 010°07'717.2
2017-Nov-01 00:08N 40°22' W 010°08'217.1
2017-Nov-01 00:00N 40°24' W 010°07'1517.5
2017-Oct-31 23:09N 40°39' W 010°05'2717.5
2017-Oct-31 21:37N 41°05' W 010°05'217.1
2017-Oct-31 21:30N 41°07' W 010°05'917.2
2017-Oct-31 21:00N 41°16' W 010°05'38016.7
2017-Oct-30 22:18N 47°13' W 007°07'3416.9
2017-Oct-30 20:18N 47°43' W 006°45'716.6
2017-Oct-30 19:54N 47°49' W 006°40'816.7
2017-Oct-30 19:27N 47°56' W 006°35'1017.0
2017-Oct-30 18:50N 48°05' W 006°27'1617.1
2017-Oct-30 17:53N 48°19' W 006°16'717.3
2017-Oct-30 17:28N 48°26' W 006°11'2017.5
2017-Oct-30 16:19N 48°44' W 005°57'2416.2
2017-Oct-30 14:50N 48°60' W 005°30'815.1
2017-Oct-30 14:19N 49°04' W 005°20'1214.8
2017-Oct-30 13:31N 49°11' W 005°04'814.7
2017-Oct-30 12:58N 49°15' W 004°54'2014.7
2017-Oct-30 11:37N 49°25' W 004°28'214.8
2017-Oct-30 11:29N 49°26' W 004°25'914.9
2017-Oct-30 10:52N 49°30' W 004°13'1415.3
2017-Oct-30 09:56N 49°38' W 003°54'715.6
2017-Oct-30 09:28N 49°41' W 003°44'715.9
2017-Oct-30 09:00N 49°45' W 003°34'815.9
2017-Oct-30 08:31N 49°49' W 003°24'815.9
2017-Oct-30 07:59N 49°53' W 003°12'815.9
2017-Oct-30 07:31N 49°56' W 003°02'815.7
2017-Oct-30 07:00N 49°59' W 002°50'815.5
2017-Oct-30 06:31N 50°02' W 002°39'815.1
2017-Oct-30 05:57N 50°05' W 002°27'714.7
2017-Oct-30 05:28N 50°07' W 002°16'814.3
2017-Oct-30 04:56N 50°10' W 002°05'614.0
2017-Oct-30 04:30N 50°12' W 001°56'713.9
2017-Oct-30 04:01N 50°14' W 001°46'713.7
2017-Oct-30 03:30N 50°16' W 001°36'713.7
2017-Oct-30 03:00N 50°19' W 001°26'714.0
2017-Oct-30 02:29N 50°23' W 001°17'714.1
2017-Oct-30 02:00N 50°28' W 001°10'714.1
2017-Oct-30 01:30N 50°33' W 001°02'612.5
2017-Oct-30 01:01N 50°39' W 000°57'5 9.8
2017-Oct-30 00:30N 50°43' W 001°01'714.2
2017-Oct-30 00:00N 50°46' W 001°11'5 9.5
2017-Oct-29 23:30N 50°48' W 001°18'4 8.7
2017-Oct-29 23:00N 50°52' W 001°22'2 3.7
2017-Oct-29 22:29N 50°53' W 001°24'0 0.0
2017-Oct-29 21:59N 50°53' W 001°24'0 0.0
2017-Oct-29 21:29N 50°53' W 001°24'0 0.0
2017-Oct-29 20:53N 50°53' W 001°24'0 0.0
2017-Oct-29 20:29N 50°53' W 001°24'0 0.0
2017-Oct-29 19:53N 50°53' W 001°24'0 0.0
2017-Oct-29 19:29N 50°53' W 001°24'0 0.0
2017-Oct-29 18:50N 50°53' W 001°24'0 0.0
2017-Oct-29 18:29N 50°53' W 001°24'0 0.0
2017-Oct-29 17:59N 50°53' W 001°24'0 0.0
2017-Oct-29 17:29N 50°53' W 001°24'0 0.0
2017-Oct-29 16:59N 50°53' W 001°24'0 0.0
2017-Oct-29 16:29N 50°53' W 001°24'0 0.0
2017-Oct-29 15:56N 50°53' W 001°24'0 0.0
2017-Oct-29 15:26N 50°53' W 001°24'0 0.0
2017-Oct-29 14:59N 50°53' W 001°24'0 0.0
2017-Oct-29 14:29N 50°53' W 001°24'0 0.0
2017-Oct-29 13:59N 50°53' W 001°24'0 0.0
2017-Oct-29 13:29N 50°53' W 001°24'0 0.0
2017-Oct-29 12:59N 50°53' W 001°24'0 0.0
2017-Oct-29 12:29N 50°53' W 001°24'0 0.0
2017-Oct-29 11:59N 50°53' W 001°24'0 0.0
2017-Oct-29 11:29N 50°53' W 001°24'0 0.0
2017-Oct-29 10:59N 50°53' W 001°24'0 0.0
2017-Oct-29 10:29N 50°53' W 001°24'0 0.0
2017-Oct-29 09:59N 50°53' W 001°24'0 0.0
2017-Oct-29 09:14N 50°53' W 001°24'0 0.0
2017-Oct-29 08:53N 50°53' W 001°24'0 0.0
2017-Oct-29 08:29N 50°53' W 001°24'0 0.0
2017-Oct-29 07:53N 50°53' W 001°24'0 0.0
2017-Oct-29 07:26N 50°53' W 001°24'0 0.0
2017-Oct-29 06:59N 50°53' W 001°24'0 0.0
2017-Oct-29 06:29N 50°53' W 001°24'0 0.0
2017-Oct-29 05:56N 50°53' W 001°24'0 0.0
2017-Oct-29 05:29N 50°53' W 001°24'0 0.0
2017-Oct-29 04:59N 50°53' W 001°24'0 0.0
2017-Oct-29 04:29N 50°53' W 001°24'0 0.0
2017-Oct-29 03:47N 50°53' W 001°24'6 0.7
2017-Oct-28 19:00N 50°48' W 001°18'5 9.6
2017-Oct-28 18:30N 50°46' W 001°11'714.3
2017-Oct-28 18:01N 50°43' W 001°01'4 8.0
2017-Oct-28 17:30N 50°39' W 000°58'3 5.6
2017-Oct-28 17:00N 50°39' W 001°02'1 1.0
2017-Oct-28 16:29N 50°38' W 001°03'0 0.0
2017-Oct-28 15:59N 50°38' W 001°03'0 0.1
2017-Oct-28 15:29N 50°38' W 001°03'0 0.1
2017-Oct-28 14:59N 50°38' W 001°03'0 0.0
2017-Oct-28 14:29N 50°38' W 001°03'0 0.1
2017-Oct-28 13:59N 50°38' W 001°03'0 0.1
2017-Oct-28 13:29N 50°38' W 001°03'0 0.0
2017-Oct-28 12:59N 50°38' W 001°03'0 0.0
2017-Oct-28 12:29N 50°38' W 001°03'0 0.0
2017-Oct-28 11:59N 50°38' W 001°03'0 0.0
2017-Oct-28 11:29N 50°38' W 001°03'0 0.0
2017-Oct-28 10:59N 50°38' W 001°03'0 0.0
2017-Oct-28 10:29N 50°38' W 001°03'0 0.1
2017-Oct-28 09:59N 50°38' W 001°03'0 0.1
2017-Oct-28 09:29N 50°38' W 001°03'0 0.1
2017-Oct-28 08:59N 50°38' W 001°03'0 0.3
2017-Oct-28 08:29N 50°38' W 001°03'0 0.1
2017-Oct-28 07:59N 50°38' W 001°03'0 0.0
2017-Oct-28 07:29N 50°38' W 001°03'0 0.0
2017-Oct-28 06:59N 50°38' W 001°03'0 0.1
2017-Oct-28 06:29N 50°38' W 001°03'0 0.1
2017-Oct-28 05:59N 50°38' W 001°03'0 0.1
2017-Oct-28 05:29N 50°38' W 001°03'0 0.0
2017-Oct-28 04:59N 50°38' W 001°03'0 0.0
2017-Oct-28 04:29N 50°38' W 001°03'0 0.0
2017-Oct-28 03:59N 50°38' W 001°03'0 0.0
2017-Oct-28 03:29N 50°38' W 001°03'0 0.0
2017-Oct-28 02:59N 50°38' W 001°03'0 0.0
2017-Oct-28 02:29N 50°38' W 001°03'0 0.0
2017-Oct-28 01:59N 50°38' W 001°03'0 0.0
2017-Oct-28 01:29N 50°38' W 001°03'0 0.0
2017-Oct-28 00:59N 50°38' W 001°03'0 0.0
2017-Oct-28 00:29N 50°38' W 001°03'0 0.0
2017-Oct-27 23:59N 50°38' W 001°03'0 0.0
2017-Oct-27 23:29N 50°38' W 001°03'0 0.0
2017-Oct-27 22:59N 50°38' W 001°03'0 0.0
2017-Oct-27 22:29N 50°38' W 001°03'0 0.0
2017-Oct-27 21:59N 50°38' W 001°03'0 0.0
2017-Oct-27 21:29N 50°38' W 001°03'0 0.1
2017-Oct-27 20:59N 50°38' W 001°03'0 0.0
2017-Oct-27 20:29N 50°38' W 001°03'0 0.0
2017-Oct-27 19:59N 50°38' W 001°03'0 0.0
2017-Oct-27 19:29N 50°38' W 001°03'0 0.0
2017-Oct-27 18:59N 50°38' W 001°03'0 0.0
2017-Oct-27 18:29N 50°38' W 001°03'0 0.0
2017-Oct-27 17:59N 50°38' W 001°03'0 0.0
2017-Oct-27 17:29N 50°38' W 001°03'0 0.0
2017-Oct-27 16:59N 50°38' W 001°03'0 0.0
2017-Oct-27 16:29N 50°38' W 001°03'0 0.0
2017-Oct-27 15:59N 50°38' W 001°03'0 0.0
2017-Oct-27 15:29N 50°38' W 001°03'0 0.0
2017-Oct-27 14:59N 50°38' W 001°03'0 0.1
2017-Oct-27 14:29N 50°38' W 001°03'0 0.0
2017-Oct-27 13:59N 50°38' W 001°03'0 0.0
2017-Oct-27 13:29N 50°38' W 001°03'0 0.0
2017-Oct-27 12:59N 50°38' W 001°03'0 0.0
2017-Oct-27 12:29N 50°38' W 001°03'0 0.0
2017-Oct-27 11:59N 50°38' W 001°03'0 0.0
2017-Oct-27 11:29N 50°38' W 001°03'0 0.0
2017-Oct-27 10:59N 50°38' W 001°03'0 0.0
2017-Oct-27 10:29N 50°38' W 001°03'0 0.1
2017-Oct-27 09:59N 50°38' W 001°03'0 0.1
2017-Oct-27 09:29N 50°38' W 001°03'0 0.0
2017-Oct-27 08:59N 50°38' W 001°03'0 0.0
2017-Oct-27 08:29N 50°38' W 001°03'0 0.0
2017-Oct-27 07:59N 50°38' W 001°03'0 0.1
2017-Oct-27 07:31N 50°38' W 001°03'2 4.8
2017-Oct-27 07:01N 50°36' W 001°01'510.2
2017-Oct-27 06:31N 50°32' W 000°56'612.6
2017-Oct-27 06:00N 50°31' W 000°46'917.8
2017-Oct-27 05:30N 50°31' W 000°32'1019.4
2017-Oct-27 05:00N 50°31' W 000°17'1019.1
2017-Oct-27 04:30N 50°32' W 000°02'1019.1
2017-Oct-27 04:00N 50°34' E 000°13'918.8
2017-Oct-27 03:30N 50°36' E 000°27'918.3
2017-Oct-27 03:01N 50°39' E 000°41'918.2
2017-Oct-27 02:30N 50°44' E 000°52'918.0
2017-Oct-27 02:00N 50°50' E 001°04'918.1
2017-Oct-27 01:30N 50°56' E 001°14'918.5
2017-Oct-27 01:00N 51°03' E 001°25'1019.8
2017-Oct-27 00:30N 51°08' E 001°38'1020.2
2017-Oct-27 00:00N 51°16' E 001°48'1020.0
2017-Oct-26 23:30N 51°24' E 001°57'917.2
2017-Oct-26 23:00N 51°22' E 002°11'917.1
2017-Oct-26 22:30N 51°21' E 002°24'816.3
2017-Oct-26 22:01N 51°23' E 002°37'612.6
2017-Oct-26 21:30N 51°22' E 002°47'816.2
2017-Oct-26 21:00N 51°24' E 002°60'816.9
2017-Oct-26 20:30N 51°24' E 003°13'815.8
2017-Oct-26 20:00N 51°25' E 003°26'612.5
2017-Oct-26 19:30N 51°26' E 003°36'5 9.8
2017-Oct-26 19:01N 51°24' E 003°43'612.8
2017-Oct-26 18:30N 51°21' E 003°52'611.9
2017-Oct-26 18:00N 51°25' E 003°58'4 8.1
2017-Oct-26 17:30N 51°23' E 004°03'510.1
2017-Oct-26 17:00N 51°24' E 004°11'5 9.5
2017-Oct-26 16:30N 51°20' E 004°16'4 7.6
2017-Oct-26 16:00N 51°17' E 004°19'2 4.2
2017-Oct-26 15:30N 51°16' E 004°17'0 0.0
2017-Oct-26 15:00N 51°16' E 004°17'1 1.2
2017-Oct-26 14:31N 51°16' E 004°16'2 3.3
2017-Oct-26 13:59N 51°16' E 004°13'0 0.0
2017-Oct-26 13:29N 51°16' E 004°13'0 0.0
2017-Oct-26 12:59N 51°16' E 004°13'0 0.0
2017-Oct-26 12:29N 51°16' E 004°13'0 0.0
2017-Oct-26 11:59N 51°16' E 004°13'0 0.0
2017-Oct-26 11:29N 51°16' E 004°13'0 0.0
2017-Oct-26 10:59N 51°16' E 004°13'0 0.0
2017-Oct-26 10:29N 51°16' E 004°13'0 0.0
2017-Oct-26 09:59N 51°16' E 004°13'0 0.0
2017-Oct-26 09:29N 51°16' E 004°13'0 0.0
2017-Oct-26 08:59N 51°16' E 004°13'0 0.0
2017-Oct-26 08:29N 51°16' E 004°13'0 0.0
2017-Oct-26 07:59N 51°16' E 004°13'0 0.0
2017-Oct-26 07:29N 51°16' E 004°13'0 0.0
2017-Oct-26 06:59N 51°16' E 004°13'0 0.0
2017-Oct-26 06:29N 51°16' E 004°13'0 0.0
2017-Oct-26 05:59N 51°16' E 004°13'0 0.0
2017-Oct-26 05:29N 51°16' E 004°13'0 0.0
2017-Oct-26 04:59N 51°16' E 004°13'0 0.0
2017-Oct-26 04:29N 51°16' E 004°13'0 0.0
2017-Oct-26 03:59N 51°16' E 004°13'0 0.0
2017-Oct-26 03:29N 51°16' E 004°13'0 0.0
2017-Oct-26 02:59N 51°16' E 004°13'0 0.0
2017-Oct-26 02:29N 51°16' E 004°13'0 0.0
2017-Oct-26 02:00N 51°16' E 004°13'0 0.0
2017-Oct-26 01:30N 51°16' E 004°13'0 0.0
2017-Oct-26 01:00N 51°16' E 004°13'0 0.0
2017-Oct-26 00:30N 51°16' E 004°13'0 0.0
2017-Oct-26 00:00N 51°16' E 004°13'0 0.0
2017-Oct-25 23:30N 51°16' E 004°13'0 0.0
2017-Oct-25 23:00N 51°16' E 004°13'0 0.0
2017-Oct-25 22:30N 51°16' E 004°13'0 0.0
2017-Oct-25 22:00N 51°16' E 004°13'0 0.0
2017-Oct-25 21:30N 51°16' E 004°13'0 0.0
2017-Oct-25 21:00N 51°16' E 004°13'0 0.0
2017-Oct-25 20:30N 51°16' E 004°13'0 0.0
2017-Oct-25 20:00N 51°16' E 004°13'0 0.0
2017-Oct-25 19:30N 51°16' E 004°13'0 0.0
2017-Oct-25 19:00N 51°16' E 004°13'0 0.0
2017-Oct-25 18:30N 51°16' E 004°13'0 0.0
2017-Oct-25 17:57N 51°16' E 004°13'0 0.0
2017-Oct-25 17:30N 51°16' E 004°13'0 0.0
2017-Oct-25 16:57N 51°16' E 004°13'0 0.0
2017-Oct-25 16:30N 51°16' E 004°13'0 0.0
2017-Oct-25 16:00N 51°16' E 004°13'0 0.0
2017-Oct-25 15:30N 51°16' E 004°13'0 0.0
2017-Oct-25 15:00N 51°16' E 004°13'0 0.0
2017-Oct-25 14:30N 51°16' E 004°13'0 0.0
2017-Oct-25 14:00N 51°16' E 004°13'0 0.0
2017-Oct-25 13:30N 51°16' E 004°13'0 0.0
2017-Oct-25 13:00N 51°16' E 004°13'0 0.0
2017-Oct-25 12:30N 51°16' E 004°13'0 0.0
2017-Oct-25 12:00N 51°16' E 004°13'0 0.0
2017-Oct-25 11:30N 51°16' E 004°13'  
Track history (hours):
 
Tides and Currents Weather Stations Pressure Air Temp Water Temp Dewpoint Dewpoint Depression Visibility Wind Speed Wind Dir Waves Ship Positions

Donington

Last reported at 2017-Nov-04 11:26 UTC. Time now 2017-Nov-18 19:11 UTC.
Position N 36°20' E 015°04'.
Warning: this ship's position is 14 days out of date.

Length 199 m; draft 9.3 m.

Type: Cargo ship. MMSI: 636017870.

Date/timePositionNaut miles runAvg speedWind from/ knotsBaromVisibWave heightAir tempDewpointWater temp
2017-Nov-04 11:26N 36°20' E 015°04'816.7
2017-Nov-04 10:59N 36°23' E 014°55'816.6
2017-Nov-04 10:29N 36°25' E 014°45'816.6
2017-Nov-04 10:00N 36°27' E 014°35'816.6
2017-Nov-04 09:30N 36°30' E 014°25'816.9
2017-Nov-04 09:00N 36°32' E 014°16'816.9
2017-Nov-04 08:30N 36°35' E 014°06'917.0
2017-Nov-04 08:00N 36°38' E 013°55'917.1
2017-Nov-04 07:30N 36°40' E 013°45'817.0
2017-Nov-04 07:00N 36°43' E 013°35'916.9
2017-Nov-04 06:30N 36°45' E 013°25'916.9
2017-Nov-04 05:58N 36°48' E 013°14'816.5
2017-Nov-04 05:29N 36°51' E 013°05'58917.0
2017-Nov-02 18:51N 36°49' E 000°49'7317.2
2017-Nov-02 14:37N 36°35' W 000°41'416.7
2017-Nov-02 14:23N 36°35' W 000°45'22017.3
2017-Nov-02 01:41N 36°00' W 005°15'318.6
2017-Nov-02 01:30N 35°60' W 005°19'918.4
2017-Nov-02 01:00N 35°57' W 005°30'31913.9
2017-Nov-01 02:00N 39°49' W 010°06'2517.3
2017-Nov-01 00:33N 40°14' W 010°07'717.2
2017-Nov-01 00:08N 40°22' W 010°08'217.1
2017-Nov-01 00:00N 40°24' W 010°07'1517.5
2017-Oct-31 23:09N 40°39' W 010°05'2717.5
2017-Oct-31 21:37N 41°05' W 010°05'217.1
2017-Oct-31 21:30N 41°07' W 010°05'917.2
2017-Oct-31 21:00N 41°16' W 010°05'38016.7
2017-Oct-30 22:18N 47°13' W 007°07'3416.9
2017-Oct-30 20:18N 47°43' W 006°45'716.6
2017-Oct-30 19:54N 47°49' W 006°40'816.7
2017-Oct-30 19:27N 47°56' W 006°35'1017.0
2017-Oct-30 18:50N 48°05' W 006°27'1617.1
2017-Oct-30 17:53N 48°19' W 006°16'717.3
2017-Oct-30 17:28N 48°26' W 006°11'2017.5
2017-Oct-30 16:19N 48°44' W 005°57'2416.2
2017-Oct-30 14:50N 48°60' W 005°30'815.1
2017-Oct-30 14:19N 49°04' W 005°20'1214.8
2017-Oct-30 13:31N 49°11' W 005°04'814.7
2017-Oct-30 12:58N 49°15' W 004°54'2014.7
2017-Oct-30 11:37N 49°25' W 004°28'214.8
2017-Oct-30 11:29N 49°26' W 004°25'914.9
2017-Oct-30 10:52N 49°30' W 004°13'1415.3
2017-Oct-30 09:56N 49°38' W 003°54'715.6
2017-Oct-30 09:28N 49°41' W 003°44'715.9
2017-Oct-30 09:00N 49°45' W 003°34'815.9
2017-Oct-30 08:31N 49°49' W 003°24'815.9
2017-Oct-30 07:59N 49°53' W 003°12'815.9
2017-Oct-30 07:31N 49°56' W 003°02'815.7
2017-Oct-30 07:00N 49°59' W 002°50'815.5
2017-Oct-30 06:31N 50°02' W 002°39'815.1
2017-Oct-30 05:57N 50°05' W 002°27'714.7
2017-Oct-30 05:28N 50°07' W 002°16'814.3
2017-Oct-30 04:56N 50°10' W 002°05'614.0
2017-Oct-30 04:30N 50°12' W 001°56'713.9
2017-Oct-30 04:01N 50°14' W 001°46'713.7
2017-Oct-30 03:30N 50°16' W 001°36'713.7
2017-Oct-30 03:00N 50°19' W 001°26'714.0
2017-Oct-30 02:29N 50°23' W 001°17'714.1
2017-Oct-30 02:00N 50°28' W 001°10'714.1
2017-Oct-30 01:30N 50°33' W 001°02'612.5
2017-Oct-30 01:01N 50°39' W 000°57'5 9.8
2017-Oct-30 00:30N 50°43' W 001°01'714.2
2017-Oct-30 00:00N 50°46' W 001°11'5 9.5
2017-Oct-29 23:30N 50°48' W 001°18'4 8.7
2017-Oct-29 23:00N 50°52' W 001°22'2 3.7
2017-Oct-29 22:29N 50°53' W 001°24'0 0.0
2017-Oct-29 21:59N 50°53' W 001°24'0 0.0
2017-Oct-29 21:29N 50°53' W 001°24'0 0.0
2017-Oct-29 20:53N 50°53' W 001°24'0 0.0
2017-Oct-29 20:29N 50°53' W 001°24'0 0.0
2017-Oct-29 19:53N 50°53' W 001°24'0 0.0
2017-Oct-29 19:29N 50°53' W 001°24'0 0.0
2017-Oct-29 18:50N 50°53' W 001°24'0 0.0
2017-Oct-29 18:29N 50°53' W 001°24'0 0.0
2017-Oct-29 17:59N 50°53' W 001°24'0 0.0
2017-Oct-29 17:29N 50°53' W 001°24'0 0.0
2017-Oct-29 16:59N 50°53' W 001°24'0 0.0
2017-Oct-29 16:29N 50°53' W 001°24'0 0.0
2017-Oct-29 15:56N 50°53' W 001°24'0 0.0
2017-Oct-29 15:26N 50°53' W 001°24'0 0.0
2017-Oct-29 14:59N 50°53' W 001°24'0 0.0
2017-Oct-29 14:29N 50°53' W 001°24'0 0.0
2017-Oct-29 13:59N 50°53' W 001°24'0 0.0
2017-Oct-29 13:29N 50°53' W 001°24'0 0.0
2017-Oct-29 12:59N 50°53' W 001°24'0 0.0
2017-Oct-29 12:29N 50°53' W 001°24'0 0.0
2017-Oct-29 11:59N 50°53' W 001°24'0 0.0
2017-Oct-29 11:29N 50°53' W 001°24'0 0.0
2017-Oct-29 10:59N 50°53' W 001°24'0 0.0
2017-Oct-29 10:29N 50°53' W 001°24'0 0.0
2017-Oct-29 09:59N 50°53' W 001°24'0 0.0
2017-Oct-29 09:14N 50°53' W 001°24'0 0.0
2017-Oct-29 08:53N 50°53' W 001°24'0 0.0
2017-Oct-29 08:29N 50°53' W 001°24'0 0.0
2017-Oct-29 07:53N 50°53' W 001°24'0 0.0
2017-Oct-29 07:26N 50°53' W 001°24'0 0.0
2017-Oct-29 06:59N 50°53' W 001°24'0 0.0
2017-Oct-29 06:29N 50°53' W 001°24'0 0.0
2017-Oct-29 05:56N 50°53' W 001°24'0 0.0
2017-Oct-29 05:29N 50°53' W 001°24'0 0.0
2017-Oct-29 04:59N 50°53' W 001°24'0 0.0
2017-Oct-29 04:29N 50°53' W 001°24'0 0.0
2017-Oct-29 03:47N 50°53' W 001°24'6 0.7
2017-Oct-28 19:00N 50°48' W 001°18'5 9.6
2017-Oct-28 18:30N 50°46' W 001°11'714.3
2017-Oct-28 18:01N 50°43' W 001°01'4 8.0
2017-Oct-28 17:30N 50°39' W 000°58'3 5.6
2017-Oct-28 17:00N 50°39' W 001°02'1 1.0
2017-Oct-28 16:29N 50°38' W 001°03'0 0.0
2017-Oct-28 15:59N 50°38' W 001°03'0 0.1
2017-Oct-28 15:29N 50°38' W 001°03'0 0.1
2017-Oct-28 14:59N 50°38' W 001°03'0 0.0
2017-Oct-28 14:29N 50°38' W 001°03'0 0.1
2017-Oct-28 13:59N 50°38' W 001°03'0 0.1
2017-Oct-28 13:29N 50°38' W 001°03'0 0.0
2017-Oct-28 12:59N 50°38' W 001°03'0 0.0
2017-Oct-28 12:29N 50°38' W 001°03'0 0.0
2017-Oct-28 11:59N 50°38' W 001°03'0 0.0
2017-Oct-28 11:29N 50°38' W 001°03'0 0.0
2017-Oct-28 10:59N 50°38' W 001°03'0 0.0
2017-Oct-28 10:29N 50°38' W 001°03'0 0.1
2017-Oct-28 09:59N 50°38' W 001°03'0 0.1
2017-Oct-28 09:29N 50°38' W 001°03'0 0.1
2017-Oct-28 08:59N 50°38' W 001°03'0 0.3
2017-Oct-28 08:29N 50°38' W 001°03'0 0.1
2017-Oct-28 07:59N 50°38' W 001°03'0 0.0
2017-Oct-28 07:29N 50°38' W 001°03'0 0.0
2017-Oct-28 06:59N 50°38' W 001°03'0 0.1
2017-Oct-28 06:29N 50°38' W 001°03'0 0.1
2017-Oct-28 05:59N 50°38' W 001°03'0 0.1
2017-Oct-28 05:29N 50°38' W 001°03'0 0.0
2017-Oct-28 04:59N 50°38' W 001°03'0 0.0
2017-Oct-28 04:29N 50°38' W 001°03'0 0.0
2017-Oct-28 03:59N 50°38' W 001°03'0 0.0
2017-Oct-28 03:29N 50°38' W 001°03'0 0.0
2017-Oct-28 02:59N 50°38' W 001°03'0 0.0
2017-Oct-28 02:29N 50°38' W 001°03'0 0.0
2017-Oct-28 01:59N 50°38' W 001°03'0 0.0
2017-Oct-28 01:29N 50°38' W 001°03'0 0.0
2017-Oct-28 00:59N 50°38' W 001°03'0 0.0
2017-Oct-28 00:29N 50°38' W 001°03'0 0.0
2017-Oct-27 23:59N 50°38' W 001°03'0 0.0
2017-Oct-27 23:29N 50°38' W 001°03'0 0.0
2017-Oct-27 22:59N 50°38' W 001°03'0 0.0
2017-Oct-27 22:29N 50°38' W 001°03'0 0.0
2017-Oct-27 21:59N 50°38' W 001°03'0 0.0
2017-Oct-27 21:29N 50°38' W 001°03'0 0.1
2017-Oct-27 20:59N 50°38' W 001°03'0 0.0
2017-Oct-27 20:29N 50°38' W 001°03'0 0.0
2017-Oct-27 19:59N 50°38' W 001°03'0 0.0
2017-Oct-27 19:29N 50°38' W 001°03'0 0.0
2017-Oct-27 18:59N 50°38' W 001°03'0 0.0
2017-Oct-27 18:29N 50°38' W 001°03'0 0.0
2017-Oct-27 17:59N 50°38' W 001°03'0 0.0
2017-Oct-27 17:29N 50°38' W 001°03'0 0.0
2017-Oct-27 16:59N 50°38' W 001°03'0 0.0
2017-Oct-27 16:29N 50°38' W 001°03'0 0.0
2017-Oct-27 15:59N 50°38' W 001°03'0 0.0
2017-Oct-27 15:29N 50°38' W 001°03'0 0.0
2017-Oct-27 14:59N 50°38' W 001°03'0 0.1
2017-Oct-27 14:29N 50°38' W 001°03'0 0.0
2017-Oct-27 13:59N 50°38' W 001°03'0 0.0
2017-Oct-27 13:29N 50°38' W 001°03'0 0.0
2017-Oct-27 12:59N 50°38' W 001°03'0 0.0
2017-Oct-27 12:29N 50°38' W 001°03'0 0.0
2017-Oct-27 11:59N 50°38' W 001°03'0 0.0
2017-Oct-27 11:29N 50°38' W 001°03'0 0.0
2017-Oct-27 10:59N 50°38' W 001°03'0 0.0
2017-Oct-27 10:29N 50°38' W 001°03'0 0.1
2017-Oct-27 09:59N 50°38' W 001°03'0 0.1
2017-Oct-27 09:29N 50°38' W 001°03'0 0.0
2017-Oct-27 08:59N 50°38' W 001°03'0 0.0
2017-Oct-27 08:29N 50°38' W 001°03'0 0.0
2017-Oct-27 07:59N 50°38' W 001°03'0 0.1
2017-Oct-27 07:31N 50°38' W 001°03'2 4.8
2017-Oct-27 07:01N 50°36' W 001°01'510.2
2017-Oct-27 06:31N 50°32' W 000°56'612.6
2017-Oct-27 06:00N 50°31' W 000°46'917.8
2017-Oct-27 05:30N 50°31' W 000°32'1019.4
2017-Oct-27 05:00N 50°31' W 000°17'1019.1
2017-Oct-27 04:30N 50°32' W 000°02'1019.1
2017-Oct-27 04:00N 50°34' E 000°13'918.8
2017-Oct-27 03:30N 50°36' E 000°27'918.3
2017-Oct-27 03:01N 50°39' E 000°41'918.2
2017-Oct-27 02:30N 50°44' E 000°52'918.0
2017-Oct-27 02:00N 50°50' E 001°04'918.1
2017-Oct-27 01:30N 50°56' E 001°14'918.5
2017-Oct-27 01:00N 51°03' E 001°25'1019.8
2017-Oct-27 00:30N 51°08' E 001°38'1020.2
2017-Oct-27 00:00N 51°16' E 001°48'1020.0
2017-Oct-26 23:30N 51°24' E 001°57'917.2
2017-Oct-26 23:00N 51°22' E 002°11'917.1
2017-Oct-26 22:30N 51°21' E 002°24'816.3
2017-Oct-26 22:01N 51°23' E 002°37'612.6
2017-Oct-26 21:30N 51°22' E 002°47'816.2
2017-Oct-26 21:00N 51°24' E 002°60'816.9
2017-Oct-26 20:30N 51°24' E 003°13'815.8
2017-Oct-26 20:00N 51°25' E 003°26'612.5
2017-Oct-26 19:30N 51°26' E 003°36'5 9.8
2017-Oct-26 19:01N 51°24' E 003°43'612.8
2017-Oct-26 18:30N 51°21' E 003°52'611.9
2017-Oct-26 18:00N 51°25' E 003°58'4 8.1
2017-Oct-26 17:30N 51°23' E 004°03'510.1
2017-Oct-26 17:00N 51°24' E 004°11'5 9.5
2017-Oct-26 16:30N 51°20' E 004°16'4 7.6
2017-Oct-26 16:00N 51°17' E 004°19'2 4.2
2017-Oct-26 15:30N 51°16' E 004°17'0 0.0
2017-Oct-26 15:00N 51°16' E 004°17'1 1.2
2017-Oct-26 14:31N 51°16' E 004°16'2 3.3
2017-Oct-26 13:59N 51°16' E 004°13'0 0.0
2017-Oct-26 13:29N 51°16' E 004°13'0 0.0
2017-Oct-26 12:59N 51°16' E 004°13'0 0.0
2017-Oct-26 12:29N 51°16' E 004°13'0 0.0
2017-Oct-26 11:59N 51°16' E 004°13'0 0.0
2017-Oct-26 11:29N 51°16' E 004°13'0 0.0
2017-Oct-26 10:59N 51°16' E 004°13'0 0.0
2017-Oct-26 10:29N 51°16' E 004°13'0 0.0
2017-Oct-26 09:59N 51°16' E 004°13'0 0.0
2017-Oct-26 09:29N 51°16' E 004°13'0 0.0
2017-Oct-26 08:59N 51°16' E 004°13'0 0.0
2017-Oct-26 08:29N 51°16' E 004°13'0 0.0
2017-Oct-26 07:59N 51°16' E 004°13'0 0.0
2017-Oct-26 07:29N 51°16' E 004°13'0 0.0
2017-Oct-26 06:59N 51°16' E 004°13'0 0.0
2017-Oct-26 06:29N 51°16' E 004°13'0 0.0
2017-Oct-26 05:59N 51°16' E 004°13'0 0.0
2017-Oct-26 05:29N 51°16' E 004°13'0 0.0
2017-Oct-26 04:59N 51°16' E 004°13'0 0.0
2017-Oct-26 04:29N 51°16' E 004°13'0 0.0
2017-Oct-26 03:59N 51°16' E 004°13'0 0.0
2017-Oct-26 03:29N 51°16' E 004°13'0 0.0
2017-Oct-26 02:59N 51°16' E 004°13'0 0.0
2017-Oct-26 02:29N 51°16' E 004°13'0 0.0
2017-Oct-26 02:00N 51°16' E 004°13'0 0.0
2017-Oct-26 01:30N 51°16' E 004°13'0 0.0
2017-Oct-26 01:00N 51°16' E 004°13'0 0.0
2017-Oct-26 00:30N 51°16' E 004°13'0 0.0
2017-Oct-26 00:00N 51°16' E 004°13'0 0.0
2017-Oct-25 23:30N 51°16' E 004°13'0 0.0
2017-Oct-25 23:00N 51°16' E 004°13'0 0.0
2017-Oct-25 22:30N 51°16' E 004°13'0 0.0
2017-Oct-25 22:00N 51°16' E 004°13'0 0.0
2017-Oct-25 21:30N 51°16' E 004°13'0 0.0
2017-Oct-25 21:00N 51°16' E 004°13'0 0.0
2017-Oct-25 20:30N 51°16' E 004°13'0 0.0
2017-Oct-25 20:00N 51°16' E 004°13'0 0.0
2017-Oct-25 19:30N 51°16' E 004°13'0 0.0
2017-Oct-25 19:00N 51°16' E 004°13'0 0.0
2017-Oct-25 18:30N 51°16' E 004°13'0 0.0
2017-Oct-25 17:57N 51°16' E 004°13'0 0.0
2017-Oct-25 17:30N 51°16' E 004°13'0 0.0
2017-Oct-25 16:57N 51°16' E 004°13'0 0.0
2017-Oct-25 16:30N 51°16' E 004°13'0 0.0
2017-Oct-25 16:00N 51°16' E 004°13'0 0.0
2017-Oct-25 15:30N 51°16' E 004°13'0 0.0
2017-Oct-25 15:00N 51°16' E 004°13'0 0.0
2017-Oct-25 14:30N 51°16' E 004°13'0 0.0
2017-Oct-25 14:00N 51°16' E 004°13'0 0.0
2017-Oct-25 13:30N 51°16' E 004°13'0 0.0
2017-Oct-25 13:00N 51°16' E 004°13'0 0.0
2017-Oct-25 12:30N 51°16' E 004°13'0 0.0
2017-Oct-25 12:00N 51°16' E 004°13'0 0.0
2017-Oct-25 11:30N 51°16' E 004°13'  

Dump ship's entire track history